Time;durP1;ratioP1;P1;durP2;ratioP2;P2;SDS_P1;SDS_P2;PMS_P1;PMS_P2;Temp;Humidity;BMP_temperature;BMP_pressure;BME280_temperature;BME280_humidity;BME280_pressure;Samples;Min_cycle;Max_cycle;Signal;HPM_P1;HPM_P2
2023/07/06 00:00:34;;;;;;;8.20;2.50;;;;;;;;;;5014498;28;20178;-71
2023/07/06 00:03:39;;;;;;;4.07;2.33;;;;;;;;;;5014373;28;20193;-71
2023/07/06 00:06:43;;;;;;;3.40;2.37;;;;;;;;;;5014074;28;20201;-71
2023/07/06 00:09:48;;;;;;;3.33;2.60;;;;;;;;;;5013280;28;20197;-71
2023/07/06 00:12:55;;;;;;;3.50;2.50;;;;;;;;;;5014027;28;20221;-71
2023/07/06 00:16:02;;;;;;;6.07;2.37;;;;;;;;;;5013193;28;20209;-71
2023/07/06 00:19:10;;;;;;;3.30;2.20;;;;;;;;;;5013125;28;20186;-71
2023/07/06 00:22:14;;;;;;;5.50;2.47;;;;;;;;;;5013113;28;20217;-71
2023/07/06 00:25:19;;;;;;;2.90;2.13;;;;;;;;;;5014079;28;20182;-71
2023/07/06 00:28:24;;;;;;;4.57;2.07;;;;;;;;;;5013943;28;20181;-71
2023/07/06 00:31:32;;;;;;;3.80;2.70;;;;;;;;;;5013924;28;20517;-71
2023/07/06 00:34:36;;;;;;;4.27;2.40;;;;;;;;;;5013854;28;20182;-71
2023/07/06 00:37:40;;;;;;;2.50;2.07;;;;;;;;;;5013750;28;20186;-71
2023/07/06 00:40:47;;;;;;;3.10;2.30;;;;;;;;;;5012823;28;20182;-71
2023/07/06 00:43:54;;;;;;;5.37;2.57;;;;;;;;;;5024357;28;20178;-71
2023/07/06 00:46:58;;;;;;;4.93;2.43;;;;;;;;;;5013807;28;20506;-71
2023/07/06 00:50:09;;;;;;;4.33;2.40;;;;;;;;;;5001780;28;20641;-71
2023/07/06 00:53:16;;;;;;;3.00;2.40;;;;;;;;;;5013378;28;20692;-71
2023/07/06 00:56:25;;;;;;;3.00;2.40;;;;;;;;;;5023713;28;20210;-71
2023/07/06 00:59:30;;;;;;;3.53;2.23;;;;;;;;;;5023939;28;20193;-71
2023/07/06 01:02:40;;;;;;;4.60;2.40;;;;;;;;;;5013115;28;20690;-71
2023/07/06 01:05:46;;;;;;;4.47;2.10;;;;;;;;;;5013065;28;20177;-71
2023/07/06 01:08:52;;;;;;;5.30;2.70;;;;;;;;;;5024061;28;20200;-71
2023/07/06 01:11:57;;;;;;;3.53;2.30;;;;;;;;;;5012680;28;20217;-71
2023/07/06 01:15:02;;;;;;;2.87;1.93;;;;;;;;;;5012602;28;20201;-71
2023/07/06 01:18:27;;;;;;;3.17;1.87;;;;;;;;;;5012496;28;20213;-71
2023/07/06 01:21:50;;;;;;;4.03;2.40;;;;;;;;;;5023738;28;20561;-71
2023/07/06 01:25:32;;;;;;;6.77;2.43;;;;;;;;;;5012658;28;20186;-71
2023/07/06 01:29:13;;;;;;;6.47;2.33;;;;;;;;;;5001221;28;20178;-71
2023/07/06 01:32:24;;;;;;;4.63;2.27;;;;;;;;;;5012225;28;20213;-71
2023/07/06 01:35:43;;;;;;;3.57;2.30;;;;;;;;;;5013248;28;20210;-71
2023/07/06 01:38:50;;;;;;;4.63;2.73;;;;;;;;;;5023534;28;20186;-71
2023/07/06 01:42:10;;;;;;;4.90;2.20;;;;;;;;;;5012557;28;20217;-71
2023/07/06 01:45:18;;;;;;;3.60;2.57;;;;;;;;;;5012142;28;20193;-71
2023/07/06 01:48:24;;;;;;;3.40;2.13;;;;;;;;;;5013233;28;20181;-71
2023/07/06 01:51:40;;;;;;;3.63;2.60;;;;;;;;;;5012316;28;20514;-71
2023/07/06 01:55:10;;;;;;;5.10;2.37;;;;;;;;;;5012795;28;20193;-71
2023/07/06 01:58:29;;;;;;;7.37;2.40;;;;;;;;;;5012014;28;20185;-71
2023/07/06 02:01:43;;;;;;;5.27;2.50;;;;;;;;;;5012257;28;20217;-71
2023/07/06 02:04:50;;;;;;;3.87;2.43;;;;;;;;;;5013053;28;20181;-71
2023/07/06 02:07:55;;;;;;;9.47;2.53;;;;;;;;;;5015839;28;20173;-71
2023/07/06 02:11:01;;;;;;;6.60;2.20;;;;;;;;;;5015514;28;20181;-71
2023/07/06 02:14:05;;;;;;;3.90;2.30;;;;;;;;;;5015391;28;20178;-71
2023/07/06 02:17:09;;;;;;;4.53;2.80;;;;;;;;;;5026799;28;20228;-71
2023/07/06 02:20:16;;;;;;;3.47;2.57;;;;;;;;;;5016380;28;20177;-71
2023/07/06 02:23:21;;;;;;;3.50;2.50;;;;;;;;;;5026837;28;20692;-71
2023/07/06 02:26:26;;;;;;;3.00;2.27;;;;;;;;;;5026836;28;20178;-71
2023/07/06 02:29:29;;;;;;;3.90;2.50;;;;;;;;;;5026522;28;20181;-71
2023/07/06 02:32:34;;;;;;;4.17;2.77;;;;;;;;;;5026357;28;20692;-71
2023/07/06 02:35:38;;;;;;;4.80;2.93;;;;;;;;;;5015490;28;20214;-71
2023/07/06 02:38:42;;;;;;;8.43;2.60;;;;;;;;;;5026353;28;20197;-71
2023/07/06 02:41:46;;;;;;;3.40;2.40;;;;;;;;;;5015598;28;20696;-71
2023/07/06 02:44:51;;;;;;;5.63;2.40;;;;;;;;;;5014911;28;20181;-71
2023/07/06 02:47:55;;;;;;;7.03;2.43;;;;;;;;;;5015046;28;20181;-71
2023/07/06 02:50:59;;;;;;;6.50;2.60;;;;;;;;;;5003521;28;20181;-71
2023/07/06 02:54:03;;;;;;;3.50;2.47;;;;;;;;;;5014757;28;20181;-71
2023/07/06 02:57:07;;;;;;;3.03;2.27;;;;;;;;;;5015650;28;20680;-71
2023/07/06 03:00:13;;;;;;;3.63;2.50;;;;;;;;;;5003350;28;20660;-71
2023/07/06 03:03:18;;;;;;;4.50;2.40;;;;;;;;;;5015232;28;20217;-71
2023/07/06 03:06:22;;;;;;;3.13;2.37;;;;;;;;;;5014458;28;20174;-71
2023/07/06 03:09:26;;;;;;;3.67;2.50;;;;;;;;;;5015433;28;20197;-71
2023/07/06 03:12:36;;;;;;;3.73;2.77;;;;;;;;;;5015038;28;20225;-71
2023/07/06 03:15:41;;;;;;;5.47;2.37;;;;;;;;;;5015273;28;20636;-71
2023/07/06 03:18:46;;;;;;;4.97;2.57;;;;;;;;;;5028451;22;20572;-72
2023/07/06 03:21:52;;;;;;;4.50;2.70;;;;;;;;;;5014644;28;20217;-73
2023/07/06 03:24:56;;;;;;;3.70;2.43;;;;;;;;;;5015179;28;20181;-73
2023/07/06 03:28:00;;;;;;;6.10;3.33;;;;;;;;;;5014480;28;20173;-73
2023/07/06 03:31:04;;;;;;;3.87;2.33;;;;;;;;;;5003255;28;20193;-73
2023/07/06 03:34:08;;;;;;;2.80;2.10;;;;;;;;;;5014495;28;20177;-73
2023/07/06 03:37:13;;;;;;;4.23;2.37;;;;;;;;;;5014787;28;20209;-73
2023/07/06 03:40:17;;;;;;;4.43;2.10;;;;;;;;;;5014101;28;20205;-73
2023/07/06 03:43:21;;;;;;;5.70;2.50;;;;;;;;;;5014152;28;20213;-73
2023/07/06 03:46:33;;;;;;;4.47;2.50;;;;;;;;;;5014186;28;20510;-73
2023/07/06 03:49:38;;;;;;;3.53;2.43;;;;;;;;;;5014575;28;20182;-73
2023/07/06 03:52:42;;;;;;;4.17;2.67;;;;;;;;;;5013974;28;20217;-73
2023/07/06 03:55:46;;;;;;;4.87;2.17;;;;;;;;;;5014118;28;20182;-74
2023/07/06 03:58:51;;;;;;;6.50;3.17;;;;;;;;;;5014809;28;20244;-73
2023/07/06 04:01:55;;;;;;;5.33;2.83;;;;;;;;;;5014713;28;20221;-73
2023/07/06 04:04:59;;;;;;;4.83;2.53;;;;;;;;;;5013626;28;20545;-73
2023/07/06 04:08:08;;;;;;;3.67;2.53;;;;;;;;;;5014390;28;20193;-73
2023/07/06 04:11:12;;;;;;;5.43;2.43;;;;;;;;;;5002484;28;20181;-73
2023/07/06 04:14:19;;;;;;;2.63;2.10;;;;;;;;;;5014375;28;20186;-73
2023/07/06 04:17:23;;;;;;;6.23;2.60;;;;;;;;;;5014215;28;20210;-74
2023/07/06 04:20:29;;;;;;;4.43;2.33;;;;;;;;;;5014552;28;20200;-73
2023/07/06 04:23:33;;;;;;;4.60;2.87;;;;;;;;;;5014007;28;20217;-73
2023/07/06 04:26:39;;;;;;;4.07;2.60;;;;;;;;;;5013547;28;20181;-73
2023/07/06 04:29:44;;;;;;;3.77;2.33;;;;;;;;;;5012573;28;20178;-73
2023/07/06 04:32:49;;;;;;;3.80;2.30;;;;;;;;;;5014173;28;20213;-73
2023/07/06 04:35:53;;;;;;;4.57;2.87;;;;;;;;;;5013436;28;20181;-73
2023/07/06 04:38:59;;;;;;;3.43;2.27;;;;;;;;;;5013097;28;20181;-73
2023/07/06 04:42:03;;;;;;;4.17;2.37;;;;;;;;;;5014138;28;20213;-73
2023/07/06 04:45:09;;;;;;;3.83;2.33;;;;;;;;;;5014120;28;20177;-73
2023/07/06 04:48:16;;;;;;;3.97;2.50;;;;;;;;;;5013650;28;20193;-73
2023/07/06 04:51:20;;;;;;;3.57;2.50;;;;;;;;;;5014005;28;20193;-73
2023/07/06 04:54:25;;;;;;;3.43;2.57;;;;;;;;;;5001682;28;20201;-73
2023/07/06 04:57:29;;;;;;;3.30;2.07;;;;;;;;;;5013451;28;20221;-73
2023/07/06 05:00:39;;;;;;;4.10;2.73;;;;;;;;;;5013285;28;20641;-73
2023/07/06 05:03:44;;;;;;;3.40;2.17;;;;;;;;;;5014039;28;20197;-73
2023/07/06 05:06:48;;;;;;;4.60;2.50;;;;;;;;;;5013744;28;20178;-74
2023/07/06 05:09:52;;;;;;;6.10;2.60;;;;;;;;;;5013673;28;20181;-73
2023/07/06 05:12:56;;;;;;;5.50;2.90;;;;;;;;;;5013161;28;20220;-73
2023/07/06 05:16:01;;;;;;;5.83;2.77;;;;;;;;;;5013803;28;20178;-73
2023/07/06 05:19:05;;;;;;;4.63;3.00;;;;;;;;;;5013726;28;20205;-73
2023/07/06 05:22:09;;;;;;;3.73;2.80;;;;;;;;;;5013827;28;20217;-73
2023/07/06 05:25:15;;;;;;;4.30;2.73;;;;;;;;;;5014038;28;20177;-73
2023/07/06 05:28:20;;;;;;;6.03;2.63;;;;;;;;;;5013691;28;20632;-72
2023/07/06 05:31:25;;;;;;;4.77;2.53;;;;;;;;;;5013191;28;20177;-73
2023/07/06 05:34:29;;;;;;;5.30;2.73;;;;;;;;;;5014078;28;20190;-73
2023/07/06 05:37:34;;;;;;;5.60;2.80;;;;;;;;;;5012908;28;20209;-73
2023/07/06 05:40:40;;;;;;;4.53;3.20;;;;;;;;;;5013562;28;20520;-73
2023/07/06 05:43:43;;;;;;;5.87;3.10;;;;;;;;;;5017587;28;20182;-73
2023/07/06 05:46:47;;;;;;;4.93;2.73;;;;;;;;;;5016546;28;20178;-73
2023/07/06 05:49:51;;;;;;;6.30;2.77;;;;;;;;;;5016605;28;20181;-73
2023/07/06 05:52:56;;;;;;;4.43;2.90;;;;;;;;;;5017108;28;20707;-73
2023/07/06 05:56:00;;;;;;;5.13;3.20;;;;;;;;;;5016967;28;20201;-73
2023/07/06 05:59:04;;;;;;;6.03;2.90;;;;;;;;;;5017063;28;20174;-73
2023/07/06 06:02:12;;;;;;;6.07;3.13;;;;;;;;;;5017137;28;20216;-73
2023/07/06 06:05:16;;;;;;;6.50;2.97;;;;;;;;;;5016209;28;20173;-73
2023/07/06 06:08:20;;;;;;;6.50;2.93;;;;;;;;;;5016793;28;20173;-72
2023/07/06 06:11:24;;;;;;;4.53;2.97;;;;;;;;;;5016478;28;20537;-73
2023/07/06 06:14:29;;;;;;;3.90;2.70;;;;;;;;;;5016658;28;20177;-74
2023/07/06 06:17:34;;;;;;;4.07;2.50;;;;;;;;;;5015666;28;20225;-75
2023/07/06 06:20:38;;;;;;;4.40;2.63;;;;;;;;;;5016697;28;20178;-74
2023/07/06 06:23:42;;;;;;;9.63;3.00;;;;;;;;;;5015796;28;20525;-75
2023/07/06 06:26:46;;;;;;;3.67;2.87;;;;;;;;;;5016625;28;20632;-74
2023/07/06 06:29:50;;;;;;;4.10;2.70;;;;;;;;;;5015533;28;20177;-74
2023/07/06 06:32:56;;;;;;;7.33;2.83;;;;;;;;;;5016437;28;20209;-74
2023/07/06 06:36:03;;;;;;;4.87;3.00;;;;;;;;;;5016579;28;20185;-74
2023/07/06 06:39:07;;;;;;;6.03;3.03;;;;;;;;;;5016126;28;20174;-74
2023/07/06 06:42:13;;;;;;;4.80;2.73;;;;;;;;;;5016038;28;20224;-73
2023/07/06 06:45:19;;;;;;;6.83;2.80;;;;;;;;;;5004213;28;20178;-74
2023/07/06 06:48:23;;;;;;;4.20;3.07;;;;;;;;;;5015926;28;20178;-73
2023/07/06 06:51:27;;;;;;;4.30;2.97;;;;;;;;;;5015339;28;20181;-74
2023/07/06 06:54:33;;;;;;;7.17;3.23;;;;;;;;;;5014786;28;20201;-73
2023/07/06 06:57:37;;;;;;;8.23;2.70;;;;;;;;;;5015859;28;20201;-74
2023/07/06 07:00:41;;;;;;;5.50;2.70;;;;;;;;;;5015828;28;20624;-74
2023/07/06 07:03:46;;;;;;;5.73;2.67;;;;;;;;;;5014994;28;20178;-74
2023/07/06 07:06:50;;;;;;;4.87;2.50;;;;;;;;;;5015702;28;20185;-74
2023/07/06 07:09:54;;;;;;;5.20;2.80;;;;;;;;;;5015924;28;20186;-74
2023/07/06 07:12:58;;;;;;;4.20;2.33;;;;;;;;;;5014673;28;20216;-74
2023/07/06 07:16:04;;;;;;;6.83;2.90;;;;;;;;;;5015373;28;20177;-73
2023/07/06 07:19:08;;;;;;;3.87;2.70;;;;;;;;;;5015177;28;20205;-73
2023/07/06 07:22:12;;;;;;;8.77;2.90;;;;;;;;;;5014980;28;20225;-73
2023/07/06 07:25:17;;;;;;;4.23;2.80;;;;;;;;;;5015494;28;20178;-74
2023/07/06 07:28:21;;;;;;;4.37;2.43;;;;;;;;;;5014182;28;20174;-74
2023/07/06 07:31:26;;;;;;;3.93;2.30;;;;;;;;;;5014107;28;20185;-74
2023/07/06 07:34:32;;;;;;;4.20;2.43;;;;;;;;;;5014372;28;20181;-74
2023/07/06 07:37:36;;;;;;;6.23;2.40;;;;;;;;;;5015074;28;20684;-74
2023/07/06 07:40:56;;;;;;;3.60;2.13;;;;;;;;;;5014227;28;20177;-74
2023/07/06 07:44:01;;;;;;;3.43;2.03;;;;;;;;;;5014930;28;20632;-74
2023/07/06 07:47:05;;;;;;;3.43;2.40;;;;;;;;;;5014606;28;20177;-74
2023/07/06 07:50:09;;;;;;;3.90;2.27;;;;;;;;;;5014106;28;20188;-74
2023/07/06 07:53:14;;;;;;;4.13;2.30;;;;;;;;;;5002482;28;20219;-74
2023/07/06 07:56:19;;;;;;;6.03;2.30;;;;;;;;;;5014387;28;20186;-74
2023/07/06 07:59:23;;;;;;;2.80;2.10;;;;;;;;;;5013725;28;20639;-74
2023/07/06 08:02:28;;;;;;;2.70;2.00;;;;;;;;;;5014572;28;20213;-74
2023/07/06 08:05:36;;;;;;;4.13;2.05;;;;;;;;;;5013667;28;20182;-74
2023/07/06 08:08:43;;;;;;;5.75;2.17;;;;;;;;;;5013812;28;20176;-74
2023/07/06 08:11:47;;;;;;;8.10;2.15;;;;;;;;;;5014520;28;20563;-74
2023/07/06 08:14:51;;;;;;;4.03;2.10;;;;;;;;;;5013366;28;20654;-74
2023/07/06 08:18:00;;;;;;;4.00;1.95;;;;;;;;;;5001814;28;20227;-74
2023/07/06 08:21:04;;;;;;;4.28;2.10;;;;;;;;;;5013379;28;20184;-74
2023/07/06 08:24:08;;;;;;;3.88;2.20;;;;;;;;;;5014263;28;20544;-74
2023/07/06 08:27:12;;;;;;;4.13;2.20;;;;;;;;;;5002203;28;20184;-74
2023/07/06 08:30:16;;;;;;;3.22;2.08;;;;;;;;;;5013869;28;20518;-74
2023/07/06 08:33:21;;;;;;;4.90;1.90;;;;;;;;;;5013004;28;20215;-74
2023/07/06 08:36:25;;;;;;;3.58;2.00;;;;;;;;;;5013725;28;20196;-74
2023/07/06 08:39:29;;;;;;;3.38;2.05;;;;;;;;;;5013306;28;20650;-74
2023/07/06 08:42:34;;;;;;;3.58;1.88;;;;;;;;;;5013556;28;20216;-74
2023/07/06 08:45:41;;;;;;;4.88;2.20;;;;;;;;;;5013073;28;20180;-73
2023/07/06 08:48:46;;;;;;;5.10;1.92;;;;;;;;;;5013588;28;20196;-74
2023/07/06 08:51:52;;;;;;;3.47;2.17;;;;;;;;;;5012857;28;20224;-74
2023/07/06 08:54:56;;;;;;;3.45;1.90;;;;;;;;;;5013835;28;20179;-74
2023/07/06 08:58:03;;;;;;;5.65;2.00;;;;;;;;;;5013336;28;20249;-74
2023/07/06 09:01:18;;;;;;;2.97;2.08;;;;;;;;;;5013514;28;20181;-74
2023/07/06 09:04:24;;;;;;;4.95;1.90;;;;;;;;;;5013997;28;20510;-74
2023/07/06 09:07:34;;;;;;;8.02;1.90;;;;;;;;;;5013675;28;20196;-74
2023/07/06 09:10:38;;;;;;;4.95;2.00;;;;;;;;;;5013219;28;20529;-74
2023/07/06 09:13:49;;;;;;;3.17;1.92;;;;;;;;;;5013735;28;20177;-74
2023/07/06 09:16:56;;;;;;;3.05;1.85;;;;;;;;;;5003939;28;20204;-73
2023/07/06 09:20:03;;;;;;;5.35;2.40;;;;;;;;;;5032214;22;20236;-72
2023/07/06 09:23:13;;;;;;;4.35;1.90;;;;;;;;;;5027917;28;20213;-71
2023/07/06 09:26:27;;;;;;;3.60;2.15;;;;;;;;;;5016726;28;20181;-72
2023/07/06 09:29:34;;;;;;;3.88;1.83;;;;;;;;;;5017106;28;20529;-72
2023/07/06 09:32:38;;;;;;;5.32;2.15;;;;;;;;;;5017106;28;20229;-72
2023/07/06 09:35:43;;;;;;;3.15;2.33;;;;;;;;;;5017019;28;20189;-72
2023/07/06 09:38:47;;;;;;;3.00;2.25;;;;;;;;;;5016912;28;20210;-72
2023/07/06 09:41:52;;;;;;;7.57;2.45;;;;;;;;;;5016219;28;20692;-72
2023/07/06 09:44:58;;;;;;;3.83;2.05;;;;;;;;;;5016841;28;20182;-72
2023/07/06 09:48:17;;;;;;;3.10;2.10;;;;;;;;;;5027325;28;20182;-71
2023/07/06 09:51:28;;;;;;;4.53;2.45;;;;;;;;;;5016374;28;20517;-72
2023/07/06 09:54:46;;;;;;;4.80;2.28;;;;;;;;;;5027770;28;20180;-73
2023/07/06 09:57:51;;;;;;;4.35;2.25;;;;;;;;;;5016557;28;20684;-73
2023/07/06 10:01:03;;;;;;;2.30;1.77;;;;;;;;;;5016782;28;20180;-73
2023/07/06 10:04:37;;;;;;;5.15;2.10;;;;;;;;;;5016756;28;20181;-73
2023/07/06 10:08:05;;;;;;;2.95;2.28;;;;;;;;;;5016726;28;20187;-73
2023/07/06 10:11:35;;;;;;;3.90;1.90;;;;;;;;;;5016474;28;20185;-73
2023/07/06 10:14:48;;;;;;;2.95;1.80;;;;;;;;;;5015486;28;20182;-73
2023/07/06 10:18:08;;;;;;;4.03;2.15;;;;;;;;;;5015510;28;20235;-73
2023/07/06 10:21:21;;;;;;;3.88;2.33;;;;;;;;;;5015865;28;20201;-73
2023/07/06 10:24:49;;;;;;;4.07;2.13;;;;;;;;;;5015618;28;20178;-73
2023/07/06 10:28:00;;;;;;;3.33;2.20;;;;;;;;;;5014760;28;20178;-73
2023/07/06 10:31:08;;;;;;;4.85;2.60;;;;;;;;;;5026348;28;20672;-73
2023/07/06 10:34:32;;;;;;;3.10;2.30;;;;;;;;;;5016069;28;20205;-73
2023/07/06 10:37:39;;;;;;;3.15;2.20;;;;;;;;;;5026649;28;20216;-73
2023/07/06 10:40:49;;;;;;;5.40;2.45;;;;;;;;;;5014793;28;20206;-73
2023/07/06 10:43:56;;;;;;;3.78;2.40;;;;;;;;;;5014870;28;20194;-72
2023/07/06 10:47:00;;;;;;;3.28;2.58;;;;;;;;;;5015803;28;20178;-72
2023/07/06 10:50:07;;;;;;;5.72;2.30;;;;;;;;;;5014974;28;20181;-72
2023/07/06 10:53:33;;;;;;;3.78;2.28;;;;;;;;;;5015618;28;20212;-72
2023/07/06 10:56:45;;;;;;;4.25;2.22;;;;;;;;;;5015930;28;20182;-73
2023/07/06 10:59:49;;;;;;;4.60;2.05;;;;;;;;;;5025674;28;20565;-73
2023/07/06 11:02:55;;;;;;;5.25;1.95;;;;;;;;;;5015412;28;20233;-73
2023/07/06 11:06:06;;;;;;;3.63;2.38;;;;;;;;;;5015447;28;20185;-73
2023/07/06 11:09:16;;;;;;;5.32;2.10;;;;;;;;;;5026287;28;20182;-72
2023/07/06 11:12:20;;;;;;;4.03;2.40;;;;;;;;;;5015366;28;20217;-72
2023/07/06 11:15:31;;;;;;;3.33;2.55;;;;;;;;;;5015334;28;20182;-73
2023/07/06 11:18:35;;;;;;;3.42;2.38;;;;;;;;;;5015136;28;20217;-73
2023/07/06 11:21:44;;;;;;;3.35;2.53;;;;;;;;;;5002996;28;20226;-73
2023/07/06 11:25:05;;;;;;;4.85;2.33;;;;;;;;;;5025302;28;20526;-72
2023/07/06 11:28:12;;;;;;;5.22;2.30;;;;;;;;;;5025503;28;20190;-73
2023/07/06 11:31:47;;;;;;;3.13;2.28;;;;;;;;;;5014676;28;20533;-72
2023/07/06 11:35:09;;;;;;;4.15;2.53;;;;;;;;;;5014936;28;20182;-73
2023/07/06 11:38:24;;;;;;;3.00;2.28;;;;;;;;;;5014495;28;20186;-73
2023/07/06 11:42:06;;;;;;;2.40;2.17;;;;;;;;;;5014472;28;20662;-72
2023/07/06 11:45:30;;;;;;;4.07;2.15;;;;;;;;;;4994948;28;20201;-72
2023/07/06 11:48:51;;;;;;;3.88;2.72;;;;;;;;;;5014933;28;20182;-73
2023/07/06 11:51:58;;;;;;;3.85;2.65;;;;;;;;;;5013774;28;20218;-72
2023/07/06 11:55:31;;;;;;;4.15;2.35;;;;;;;;;;5014664;28;20513;-72
2023/07/06 11:58:53;;;;;;;8.50;2.80;;;;;;;;;;5014139;28;20210;-73
2023/07/06 12:01:58;;;;;;;3.92;2.38;;;;;;;;;;5013469;28;20225;-72
2023/07/06 12:05:02;;;;;;;3.42;2.50;;;;;;;;;;5014543;28;20181;-72
2023/07/06 12:08:27;;;;;;;4.63;2.85;;;;;;;;;;5024777;28;20178;-72
2023/07/06 12:11:31;;;;;;;4.63;2.88;;;;;;;;;;5014289;28;20217;-72
2023/07/06 12:14:35;;;;;;;4.78;2.47;;;;;;;;;;5013982;28;20186;-73
2023/07/06 12:17:41;;;;;;;2.97;2.50;;;;;;;;;;5014196;28;20182;-73
2023/07/06 12:20:49;;;;;;;3.08;2.38;;;;;;;;;;5014210;28;20182;-72
2023/07/06 12:24:01;;;;;;;3.63;2.38;;;;;;;;;;5013853;28;20190;-72
2023/07/06 12:27:12;;;;;;;3.20;2.75;;;;;;;;;;5013225;28;20535;-72
2023/07/06 12:30:17;;;;;;;2.88;2.50;;;;;;;;;;5013228;28;20174;-72
2023/07/06 12:33:22;;;;;;;3.20;2.63;;;;;;;;;;5013571;28;20217;-72
2023/07/06 12:36:33;;;;;;;3.70;2.75;;;;;;;;;;5013520;28;20550;-72
2023/07/06 12:39:41;;;;;;;4.95;2.90;;;;;;;;;;5013515;28;20210;-72
2023/07/06 12:42:46;;;;;;;3.13;2.80;;;;;;;;;;5013493;28;20225;-72
2023/07/06 12:45:52;;;;;;;3.47;2.90;;;;;;;;;;5013745;28;20186;-72
2023/07/06 12:49:01;;;;;;;4.32;3.03;;;;;;;;;;5024002;28;20174;-72
2023/07/06 12:52:12;;;;;;;3.60;3.00;;;;;;;;;;5013113;28;20217;-72
2023/07/06 12:55:17;;;;;;;3.03;2.72;;;;;;;;;;5013881;28;20177;-72
2023/07/06 12:58:36;;;;;;;3.75;3.03;;;;;;;;;;5023783;28;20644;-73
2023/07/06 13:01:45;;;;;;;6.47;3.10;;;;;;;;;;5023717;28;20218;-73
2023/07/06 13:04:51;;;;;;;4.55;3.38;;;;;;;;;;5023833;28;20174;-72
2023/07/06 13:07:55;;;;;;;3.85;3.00;;;;;;;;;;5013312;28;20178;-72
2023/07/06 13:11:03;;;;;;;3.22;2.85;;;;;;;;;;5013514;28;20170;-72
2023/07/06 13:14:07;;;;;;;4.47;2.97;;;;;;;;;;5013346;28;20522;-71
2023/07/06 13:17:23;;;;;;;4.35;3.30;;;;;;;;;;5012612;28;20197;-72
2023/07/06 13:20:29;;;;;;;4.38;3.10;;;;;;;;;;5012935;28;20570;-72
2023/07/06 13:23:33;;;;;;;4.05;3.17;;;;;;;;;;5013144;28;20700;-72
2023/07/06 13:26:37;;;;;;;5.10;3.13;;;;;;;;;;5012794;28;20186;-72
2023/07/06 13:29:42;;;;;;;4.22;2.42;;;;;;;;;;5012242;28;20185;-72
2023/07/06 13:32:46;;;;;;;3.97;2.80;;;;;;;;;;5013215;28;20221;-71
2023/07/06 13:35:50;;;;;;;4.03;3.13;;;;;;;;;;5012465;28;20177;-73
2023/07/06 13:38:54;;;;;;;4.60;3.30;;;;;;;;;;5012852;28;20541;-73
2023/07/06 13:42:00;;;;;;;3.30;3.00;;;;;;;;;;5013251;28;20696;-73
2023/07/06 13:45:14;;;;;;;3.05;2.63;;;;;;;;;;5012650;28;20178;-73
2023/07/06 13:48:19;;;;;;;5.55;3.45;;;;;;;;;;5012860;28;20185;-72
2023/07/06 13:51:23;;;;;;;5.65;2.53;;;;;;;;;;5012806;28;20174;-72
2023/07/06 13:54:28;;;;;;;6.78;2.97;;;;;;;;;;5012005;28;20174;-72
2023/07/06 13:57:32;;;;;;;6.40;2.90;;;;;;;;;;5023526;28;20209;-72
2023/07/06 14:00:36;;;;;;;4.97;3.17;;;;;;;;;;5012785;28;20201;-72
2023/07/06 14:03:42;;;;;;;3.95;2.95;;;;;;;;;;5016229;28;20181;-72
2023/07/06 14:06:46;;;;;;;4.50;2.95;;;;;;;;;;5016489;28;20186;-72
2023/07/06 14:09:50;;;;;;;4.18;3.40;;;;;;;;;;5015728;28;20186;-72
2023/07/06 14:12:54;;;;;;;4.63;3.08;;;;;;;;;;5016080;28;20221;-71
2023/07/06 14:15:59;;;;;;;5.10;2.95;;;;;;;;;;5016410;28;20181;-72
2023/07/06 14:19:04;;;;;;;3.25;2.80;;;;;;;;;;5026493;28;20221;-72
2023/07/06 14:22:09;;;;;;;3.83;3.05;;;;;;;;;;5015953;28;20213;-72
2023/07/06 14:25:19;;;;;;;6.47;3.03;;;;;;;;;;5016012;28;20182;-72
2023/07/06 14:28:26;;;;;;;3.47;3.05;;;;;;;;;;5016327;28;20174;-72
2023/07/06 14:31:33;;;;;;;4.68;2.92;;;;;;;;;;5015745;28;20201;-72
2023/07/06 14:34:37;;;;;;;4.82;3.20;;;;;;;;;;5015022;28;20197;-72
2023/07/06 14:37:42;;;;;;;4.15;3.10;;;;;;;;;;5026399;28;20177;-72
2023/07/06 14:40:48;;;;;;;3.20;2.90;;;;;;;;;;5015055;28;20206;-72
2023/07/06 14:43:52;;;;;;;4.60;3.20;;;;;;;;;;5015651;28;20194;-72
2023/07/06 14:46:56;;;;;;;4.70;3.10;;;;;;;;;;5015580;28;20178;-72
2023/07/06 14:50:01;;;;;;;5.55;3.20;;;;;;;;;;5015787;28;20174;-72
2023/07/06 14:53:05;;;;;;;4.70;2.80;;;;;;;;;;5015933;28;20210;-73
2023/07/06 14:56:09;;;;;;;3.65;3.08;;;;;;;;;;5015475;28;20181;-73
2023/07/06 14:59:14;;;;;;;3.55;2.63;;;;;;;;;;5003218;28;20185;-72
2023/07/06 15:02:18;;;;;;;4.45;2.97;;;;;;;;;;5014477;28;20567;-73
2023/07/06 15:05:22;;;;;;;4.88;3.28;;;;;;;;;;5014728;28;20182;-73
2023/07/06 15:08:26;;;;;;;4.10;3.33;;;;;;;;;;5015159;28;20178;-73
2023/07/06 15:11:30;;;;;;;3.00;2.70;;;;;;;;;;5015003;28;20173;-72
2023/07/06 15:14:35;;;;;;;4.50;3.45;;;;;;;;;;5014259;28;20528;-72
2023/07/06 15:17:39;;;;;;;4.20;2.75;;;;;;;;;;5015198;28;20181;-73
2023/07/06 15:20:43;;;;;;;3.97;3.15;;;;;;;;;;5030060;22;20574;-72
2023/07/06 15:23:48;;;;;;;4.80;3.30;;;;;;;;;;4995635;28;20174;-74
2023/07/06 15:26:52;;;;;;;4.78;3.35;;;;;;;;;;4995923;28;20179;-73
2023/07/06 15:29:56;;;;;;;3.83;2.85;;;;;;;;;;4995545;28;20178;-73
2023/07/06 15:33:01;;;;;;;4.80;3.05;;;;;;;;;;4994565;28;20214;-73
2023/07/06 15:36:05;;;;;;;6.25;3.15;;;;;;;;;;4994535;28;20204;-74
2023/07/06 15:39:09;;;;;;;4.97;3.10;;;;;;;;;;4995580;28;20209;-73
2023/07/06 15:42:13;;;;;;;4.55;2.75;;;;;;;;;;4995288;28;20217;-74
2023/07/06 15:45:17;;;;;;;6.80;3.00;;;;;;;;;;4995204;28;20549;-73
2023/07/06 15:48:21;;;;;;;4.50;2.80;;;;;;;;;;4995127;28;20536;-74
2023/07/06 15:51:26;;;;;;;5.00;3.58;;;;;;;;;;4995348;28;20182;-73
2023/07/06 15:54:30;;;;;;;6.15;2.90;;;;;;;;;;4994221;28;20205;-73
2023/07/06 15:57:34;;;;;;;3.60;3.03;;;;;;;;;;4994591;28;20179;-73
2023/07/06 16:00:40;;;;;;;4.30;2.95;;;;;;;;;;4995358;28;20207;-73
2023/07/06 16:03:44;;;;;;;3.50;2.63;;;;;;;;;;4995036;28;20529;-73
2023/07/06 16:06:47;;;;;;;3.30;2.83;;;;;;;;;;4994455;28;20527;-73
2023/07/06 16:09:51;;;;;;;3.47;2.70;;;;;;;;;;4995091;28;20188;-73
2023/07/06 16:12:56;;;;;;;5.53;3.50;;;;;;;;;;4994787;28;20223;-73
2023/07/06 16:16:00;;;;;;;6.43;3.25;;;;;;;;;;4983112;28;20181;-73
2023/07/06 16:19:04;;;;;;;8.13;3.55;;;;;;;;;;4994892;28;20183;-73
2023/07/06 16:22:08;;;;;;;5.10;3.35;;;;;;;;;;4994882;28;20216;-72
2023/07/06 16:25:12;;;;;;;6.55;3.30;;;;;;;;;;5006304;28;20512;-73
2023/07/06 16:28:16;;;;;;;4.70;3.28;;;;;;;;;;4994049;28;20182;-72
2023/07/06 16:31:22;;;;;;;4.82;2.90;;;;;;;;;;4994495;28;20194;-73
2023/07/06 16:34:26;;;;;;;4.20;3.45;;;;;;;;;;4994557;28;20203;-73
2023/07/06 16:37:29;;;;;;;4.82;3.38;;;;;;;;;;4993609;28;20198;-74
2023/07/06 16:40:34;;;;;;;6.07;3.05;;;;;;;;;;4993453;28;20223;-74
2023/07/06 16:43:38;;;;;;;6.38;3.50;;;;;;;;;;4994732;28;20197;-74
2023/07/06 16:46:42;;;;;;;4.90;3.00;;;;;;;;;;4994556;28;20194;-74
2023/07/06 16:49:46;;;;;;;3.92;3.28;;;;;;;;;;4994548;28;20188;-73
2023/07/06 16:52:50;;;;;;;4.10;3.35;;;;;;;;;;5004960;28;20221;-74
2023/07/06 16:55:54;;;;;;;6.45;3.28;;;;;;;;;;4995033;28;20189;-74
2023/07/06 16:58:59;;;;;;;4.25;3.10;;;;;;;;;;4982431;28;20185;-74
2023/07/06 17:02:04;;;;;;;3.75;3.15;;;;;;;;;;4993880;28;20216;-73
2023/07/06 17:05:09;;;;;;;4.03;3.00;;;;;;;;;;4993647;28;20190;-73
2023/07/06 17:08:13;;;;;;;6.93;3.50;;;;;;;;;;5004935;28;20185;-73
2023/07/06 17:11:17;;;;;;;7.47;3.97;;;;;;;;;;5004553;28;20181;-73
2023/07/06 17:14:21;;;;;;;3.30;2.97;;;;;;;;;;5004973;28;20188;-73
2023/07/06 17:17:25;;;;;;;4.00;3.17;;;;;;;;;;4993873;28;20203;-74
2023/07/06 17:20:31;;;;;;;4.73;3.30;;;;;;;;;;4993722;28;20664;-74
2023/07/06 17:23:35;;;;;;;5.40;3.30;;;;;;;;;;4993469;28;20219;-73
2023/07/06 17:26:40;;;;;;;3.33;3.00;;;;;;;;;;4994594;28;20191;-74
2023/07/06 17:29:44;;;;;;;5.00;3.40;;;;;;;;;;4994237;28;20185;-74
2023/07/06 17:32:48;;;;;;;4.53;3.33;;;;;;;;;;4994326;28;20222;-74
2023/07/06 17:35:52;;;;;;;4.30;2.90;;;;;;;;;;4994321;28;20184;-74
2023/07/06 17:38:56;;;;;;;4.23;2.97;;;;;;;;;;4998274;28;20188;-74
2023/07/06 17:42:00;;;;;;;5.10;3.00;;;;;;;;;;4997375;28;20232;-74
2023/07/06 17:45:05;;;;;;;4.47;3.03;;;;;;;;;;4998539;28;20179;-74
2023/07/06 17:48:09;;;;;;;3.97;3.10;;;;;;;;;;4997628;28;20199;-74
2023/07/06 17:51:13;;;;;;;3.67;3.30;;;;;;;;;;4997471;28;20183;-74
2023/07/06 17:54:17;;;;;;;4.97;3.70;;;;;;;;;;4996512;28;20183;-73
2023/07/06 17:57:22;;;;;;;7.10;3.40;;;;;;;;;;4996355;28;20183;-74
2023/07/06 18:00:26;;;;;;;4.90;3.23;;;;;;;;;;4997202;28;20218;-74
2023/07/06 18:03:30;;;;;;;4.17;3.30;;;;;;;;;;4996505;28;20219;-74
2023/07/06 18:06:35;;;;;;;3.27;2.90;;;;;;;;;;4985400;28;20189;-74
2023/07/06 18:09:39;;;;;;;7.90;3.77;;;;;;;;;;4997234;28;20205;-73
2023/07/06 18:12:43;;;;;;;6.10;3.60;;;;;;;;;;4996963;28;20219;-73
2023/07/06 18:15:48;;;;;;;16.30;6.57;;;;;;;;;;4996805;28;20181;-74
2023/07/06 18:18:53;;;;;;;6.07;4.03;;;;;;;;;;4997255;28;20211;-74
2023/07/06 18:21:57;;;;;;;4.70;3.33;;;;;;;;;;4995934;28;20239;-73
2023/07/06 18:25:01;;;;;;;4.73;3.57;;;;;;;;;;4997038;28;20186;-73
2023/07/06 18:28:07;;;;;;;5.03;2.93;;;;;;;;;;4997020;28;20184;-73
2023/07/06 18:31:12;;;;;;;4.63;3.10;;;;;;;;;;4996859;28;20179;-73
2023/07/06 18:34:17;;;;;;;3.77;2.97;;;;;;;;;;5007181;28;20187;-73
2023/07/06 18:37:21;;;;;;;4.47;3.00;;;;;;;;;;4996563;28;20523;-73
2023/07/06 18:40:25;;;;;;;6.07;3.07;;;;;;;;;;4996685;28;20209;-74